createdAt,value
2016-05-16T00:00:13.459Z,1013.67
2016-05-16T00:01:13.478Z,1013.65
2016-05-16T00:02:13.465Z,1013.67
2016-05-16T00:03:13.498Z,1013.65
2016-05-16T00:04:13.486Z,1013.66
2016-05-16T00:05:13.488Z,1013.64
2016-05-16T00:06:13.492Z,1013.7
2016-05-16T00:07:13.509Z,1013.72
2016-05-16T00:08:13.512Z,1013.69
2016-05-16T00:09:13.514Z,1013.66
2016-05-16T00:10:13.517Z,1013.66
2016-05-16T00:11:13.535Z,1013.68
2016-05-16T00:12:13.538Z,1013.68
2016-05-16T00:13:13.542Z,1013.71
2016-05-16T00:14:13.544Z,1013.7
2016-05-16T00:15:13.547Z,1013.75
2016-05-16T00:16:13.549Z,1013.71
2016-05-16T00:17:13.567Z,1013.73
2016-05-16T00:18:13.569Z,1013.72
2016-05-16T00:19:13.572Z,1013.71
2016-05-16T00:20:13.591Z,1013.72
2016-05-16T00:21:13.594Z,1013.71
2016-05-16T00:22:13.596Z,1013.69
2016-05-16T00:23:13.599Z,1013.7
2016-05-16T00:24:13.602Z,1013.7
2016-05-16T00:25:13.621Z,1013.69
2016-05-16T00:26:13.623Z,1013.68
2016-05-16T00:27:13.626Z,1013.7
2016-05-16T00:28:13.629Z,1013.68
2016-05-16T00:29:13.631Z,1013.71
2016-05-16T00:30:13.634Z,1013.66
2016-05-16T00:31:13.651Z,1013.7
2016-05-16T00:32:13.655Z,1013.67
2016-05-16T00:33:13.657Z,1013.68
2016-05-16T00:34:13.660Z,1013.66
2016-05-16T00:35:13.662Z,1013.64
2016-05-16T00:36:13.681Z,1013.62
2016-05-16T00:37:13.684Z,1013.62
2016-05-16T00:38:13.686Z,1013.62
2016-05-16T00:39:13.689Z,1013.65
2016-05-16T00:40:13.692Z,1013.65
2016-05-16T00:41:13.711Z,1013.65
2016-05-16T00:42:13.713Z,1013.64
2016-05-16T00:43:13.716Z,1013.63
2016-05-16T00:44:13.718Z,1013.66
2016-05-16T00:45:13.736Z,1013.63
2016-05-16T00:46:13.739Z,1013.65
2016-05-16T00:47:13.742Z,1013.64
2016-05-16T00:48:13.744Z,1013.62
2016-05-16T00:49:13.747Z,1013.65
2016-05-16T00:50:13.766Z,1013.64
2016-05-16T00:51:13.768Z,1013.6
2016-05-16T00:52:13.771Z,1013.63
2016-05-16T00:53:13.774Z,1013.59
2016-05-16T00:54:13.792Z,1013.56
2016-05-16T00:55:13.794Z,1013.61
2016-05-16T00:56:13.797Z,1013.57
2016-05-16T00:57:13.800Z,1013.59
2016-05-16T00:58:13.803Z,1013.59
2016-05-16T00:59:13.820Z,1013.59
2016-05-16T01:00:13.823Z,1013.62
2016-05-16T01:01:13.826Z,1013.58
2016-05-16T01:02:13.829Z,1013.58
2016-05-16T01:03:13.832Z,1013.59
2016-05-16T01:04:13.850Z,1013.57
2016-05-16T01:05:13.853Z,1013.57
2016-05-16T01:06:13.870Z,1013.62
2016-05-16T01:07:13.859Z,1013.58
2016-05-16T01:08:13.861Z,1013.58
2016-05-16T01:09:13.864Z,1013.55
2016-05-16T01:10:13.882Z,1013.55
2016-05-16T01:11:13.884Z,1013.55
2016-05-16T01:12:13.887Z,1013.61
2016-05-16T01:13:13.890Z,1013.56
2016-05-16T01:14:13.893Z,1013.57
2016-05-16T01:15:13.911Z,1013.6
2016-05-16T01:16:13.929Z,1013.57
2016-05-16T01:17:13.916Z,1013.58
2016-05-16T01:18:13.919Z,1013.55
2016-05-16T01:19:13.938Z,1013.58
2016-05-16T01:20:14.175Z,1013.63
2016-05-16T01:21:13.943Z,1013.59
2016-05-16T01:22:13.945Z,1013.61
2016-05-16T01:23:13.964Z,1013.63
2016-05-16T01:24:13.967Z,1013.62
2016-05-16T01:25:13.969Z,1013.63
2016-05-16T01:26:13.971Z,1013.62
2016-05-16T01:27:13.975Z,1013.64
2016-05-16T01:28:13.992Z,1013.61
2016-05-16T01:29:13.996Z,1013.59
2016-05-16T01:30:13.998Z,1013.59
2016-05-16T01:31:14.001Z,1013.54
2016-05-16T01:32:14.004Z,1013.58
2016-05-16T01:33:14.022Z,1013.56
2016-05-16T01:34:14.024Z,1013.57
2016-05-16T01:35:14.292Z,1013.59
2016-05-16T01:36:14.029Z,1013.58
2016-05-16T01:37:14.033Z,1013.53
2016-05-16T01:38:14.051Z,1013.5
2016-05-16T01:39:14.053Z,1013.51
2016-05-16T01:40:14.057Z,1013.54
2016-05-16T01:41:14.059Z,1013.49
2016-05-16T01:42:14.061Z,1013.52
2016-05-16T01:43:14.081Z,1013.52
2016-05-16T01:44:14.083Z,1013.55
2016-05-16T01:45:14.085Z,1013.45
2016-05-16T01:46:14.089Z,1013.52
2016-05-16T01:47:14.091Z,1013.51
2016-05-16T01:48:14.108Z,1013.52
2016-05-16T01:49:14.112Z,1013.56
2016-05-16T01:50:14.114Z,1013.52
2016-05-16T01:51:14.147Z,1013.56
2016-05-16T01:52:14.191Z,1013.54
2016-05-16T01:53:14.250Z,1013.54
2016-05-16T01:54:14.292Z,1013.54
2016-05-16T01:55:14.336Z,1013.52
2016-05-16T01:56:14.375Z,1013.55
2016-05-16T01:57:14.376Z,1013.55
2016-05-16T01:58:14.410Z,1013.54
2016-05-16T01:59:14.427Z,1013.55
2016-05-16T02:00:14.444Z,1013.53
2016-05-16T02:01:14.454Z,1013.51
2016-05-16T02:02:14.963Z,1013.53
2016-05-16T02:03:14.486Z,1013.53
2016-05-16T02:04:14.494Z,1013.56
2016-05-16T02:05:14.502Z,1013.56
2016-05-16T02:06:14.507Z,1013.54
2016-05-16T02:07:14.512Z,1013.59
2016-05-16T02:08:14.532Z,1013.58
2016-05-16T02:09:14.537Z,1013.58
2016-05-16T02:10:14.542Z,1013.55
2016-05-16T02:11:14.561Z,1013.58
2016-05-16T02:12:14.564Z,1013.55
2016-05-16T02:13:14.567Z,1013.53
2016-05-16T02:14:14.571Z,1013.54
2016-05-16T02:15:14.574Z,1013.56
2016-05-16T02:16:14.577Z,1013.58
2016-05-16T02:17:14.579Z,1013.54
2016-05-16T02:18:14.599Z,1013.54
2016-05-16T02:19:14.601Z,1013.51
2016-05-16T02:20:15.197Z,1013.51
2016-05-16T02:21:14.607Z,1013.51
2016-05-16T02:22:14.609Z,1013.5
2016-05-16T02:23:14.627Z,1013.51
2016-05-16T02:24:14.631Z,1013.51
2016-05-16T02:25:14.633Z,1013.53
2016-05-16T02:26:14.636Z,1013.49
2016-05-16T02:27:14.638Z,1013.5
2016-05-16T02:28:14.656Z,1013.47
2016-05-16T02:29:14.659Z,1013.47
2016-05-16T02:30:14.662Z,1013.45
2016-05-16T02:31:14.664Z,1013.48
2016-05-16T02:32:14.667Z,1013.48
2016-05-16T02:33:14.685Z,1013.49
2016-05-16T02:34:14.705Z,1013.51
2016-05-16T02:35:14.691Z,1013.52
2016-05-16T02:36:14.694Z,1013.48
2016-05-16T02:37:14.696Z,1013.51
2016-05-16T02:38:14.715Z,1013.52
2016-05-16T02:39:14.718Z,1013.45
2016-05-16T02:40:14.721Z,1013.47
2016-05-16T02:41:14.723Z,1013.47
2016-05-16T02:42:14.725Z,1013.46
2016-05-16T02:43:14.743Z,1013.47
2016-05-16T02:44:14.746Z,1013.46
2016-05-16T02:45:14.749Z,1013.53
2016-05-16T02:46:14.767Z,1013.46
2016-05-16T02:47:14.771Z,1013.44
2016-05-16T02:48:14.773Z,1013.47
2016-05-16T02:49:14.776Z,1013.45
2016-05-16T02:50:15.278Z,1013.5
2016-05-16T02:51:14.781Z,1013.47
2016-05-16T02:52:14.783Z,1013.47
2016-05-16T02:53:14.787Z,1013.52
2016-05-16T02:54:14.804Z,1013.51
2016-05-16T02:55:14.807Z,1013.51
2016-05-16T02:56:14.809Z,1013.48
2016-05-16T02:57:14.812Z,1013.5
2016-05-16T02:58:14.831Z,1013.52
2016-05-16T02:59:14.834Z,1013.49
2016-05-16T03:00:14.836Z,1013.48
2016-05-16T03:01:14.839Z,1013.49
2016-05-16T03:02:14.858Z,1013.5
2016-05-16T03:03:14.860Z,1013.43
2016-05-16T03:04:14.863Z,1013.46
2016-05-16T03:05:14.865Z,1013.39
2016-05-16T03:06:14.868Z,1013.44
2016-05-16T03:07:14.871Z,1013.43
2016-05-16T03:08:14.874Z,1013.41
2016-05-16T03:09:14.891Z,1013.42
2016-05-16T03:10:14.894Z,1013.42
2016-05-16T03:11:14.897Z,1013.43
2016-05-16T03:12:14.900Z,1013.43
2016-05-16T03:13:14.918Z,1013.39
2016-05-16T03:14:14.921Z,1013.42
2016-05-16T03:15:14.923Z,1013.43
2016-05-16T03:16:14.926Z,1013.41
2016-05-16T03:17:14.929Z,1013.41
2016-05-16T03:18:14.948Z,1013.39
2016-05-16T03:19:14.950Z,1013.37
2016-05-16T03:20:15.218Z,1013.35
2016-05-16T03:21:14.956Z,1013.36
2016-05-16T03:22:14.973Z,1013.39
2016-05-16T03:23:14.976Z,1013.37
2016-05-16T03:24:14.979Z,1013.37
2016-05-16T03:25:14.998Z,1013.35
2016-05-16T03:26:14.984Z,1013.39
2016-05-16T03:27:15.003Z,1013.36
2016-05-16T03:28:15.005Z,1013.36
2016-05-16T03:29:15.008Z,1013.37
2016-05-16T03:30:15.011Z,1013.38
2016-05-16T03:31:15.014Z,1013.33
2016-05-16T03:32:15.031Z,1013.4
2016-05-16T03:33:15.019Z,1013.4
2016-05-16T03:34:15.037Z,1013.39
2016-05-16T03:35:15.149Z,1013.33
2016-05-16T03:36:15.042Z,1013.42
2016-05-16T03:37:15.045Z,1013.4
2016-05-16T03:38:15.063Z,1013.36
2016-05-16T03:39:15.066Z,1013.4
2016-05-16T03:40:15.069Z,1013.4
2016-05-16T03:41:15.071Z,1013.43
2016-05-16T03:42:15.090Z,1013.4
2016-05-16T03:43:15.077Z,1013.38
2016-05-16T03:44:15.096Z,1013.42
2016-05-16T03:45:15.098Z,1013.4
2016-05-16T03:46:15.101Z,1013.44
2016-05-16T03:47:15.119Z,1013.41
2016-05-16T03:48:15.121Z,1013.43
2016-05-16T03:49:15.124Z,1013.42
2016-05-16T03:50:15.127Z,1013.45
2016-05-16T03:51:15.129Z,1013.4
2016-05-16T03:52:15.132Z,1013.43
2016-05-16T03:53:15.151Z,1013.4
2016-05-16T03:54:15.153Z,1013.39
2016-05-16T03:55:15.156Z,1013.4
2016-05-16T03:56:15.159Z,1013.43
2016-05-16T03:57:15.178Z,1013.42
2016-05-16T03:58:15.180Z,1013.45
2016-05-16T03:59:15.183Z,1013.46
2016-05-16T04:00:15.185Z,1013.46
2016-05-16T04:01:15.188Z,1013.45
2016-05-16T04:02:15.191Z,1013.45
2016-05-16T04:03:15.209Z,1013.46
2016-05-16T04:04:15.211Z,1013.47
2016-05-16T04:05:15.214Z,1013.46
2016-05-16T04:06:15.217Z,1013.43
2016-05-16T04:07:15.236Z,1013.44
2016-05-16T04:08:15.238Z,1013.4
2016-05-16T04:09:15.241Z,1013.37
2016-05-16T04:10:15.243Z,1013.38
2016-05-16T04:11:15.246Z,1013.36
2016-05-16T04:12:15.249Z,1013.35
2016-05-16T04:13:15.266Z,1013.39
2016-05-16T04:14:15.269Z,1013.37
2016-05-16T04:15:15.272Z,1013.35
2016-05-16T04:16:15.275Z,1013.39
2016-05-16T04:17:15.277Z,1013.38
2016-05-16T04:18:15.296Z,1013.39
2016-05-16T04:19:15.298Z,1013.39
2016-05-16T04:20:15.301Z,1013.41
2016-05-16T04:21:15.304Z,1013.42
2016-05-16T04:22:15.307Z,1013.39
2016-05-16T04:23:15.325Z,1013.4
2016-05-16T04:24:15.328Z,1013.4
2016-05-16T04:25:15.331Z,1013.41
2016-05-16T04:26:15.333Z,1013.39
2016-05-16T04:27:15.336Z,1013.38
2016-05-16T04:28:15.354Z,1013.41
2016-05-16T04:29:15.357Z,1013.42
2016-05-16T04:30:15.359Z,1013.43
2016-05-16T04:31:15.362Z,1013.41
2016-05-16T04:32:15.364Z,1013.43
2016-05-16T04:33:15.383Z,1013.44
2016-05-16T04:34:15.386Z,1013.44
2016-05-16T04:35:15.405Z,1013.47
2016-05-16T04:36:15.391Z,1013.47
2016-05-16T04:37:15.410Z,1013.47
2016-05-16T04:38:15.413Z,1013.48
2016-05-16T04:39:15.416Z,1013.49
2016-05-16T04:40:15.418Z,1013.52
2016-05-16T04:41:15.421Z,1013.53
2016-05-16T04:42:15.424Z,1013.53
2016-05-16T04:43:15.441Z,1013.51
2016-05-16T04:44:15.444Z,1013.54
2016-05-16T04:45:15.446Z,1013.56
2016-05-16T04:46:15.449Z,1013.53
2016-05-16T04:47:15.468Z,1013.51
2016-05-16T04:48:15.471Z,1013.51
2016-05-16T04:49:15.473Z,1013.51
2016-05-16T04:50:15.476Z,1013.47
2016-05-16T04:51:15.478Z,1013.5
2016-05-16T04:52:15.497Z,1013.51
2016-05-16T04:53:15.499Z,1013.49
2016-05-16T04:54:15.502Z,1013.48
2016-05-16T04:55:15.504Z,1013.48
2016-05-16T04:56:15.507Z,1013.5
2016-05-16T04:57:15.526Z,1013.49
2016-05-16T04:58:15.528Z,1013.5
2016-05-16T04:59:15.531Z,1013.52
2016-05-16T05:00:15.534Z,1013.48
2016-05-16T05:01:15.537Z,1013.49
2016-05-16T05:02:15.555Z,1013.47
2016-05-16T05:03:15.558Z,1013.47
2016-05-16T05:04:15.560Z,1013.46
2016-05-16T05:05:15.563Z,1013.46
2016-05-16T05:06:15.566Z,1013.47
2016-05-16T05:07:15.584Z,1013.45
2016-05-16T05:08:15.586Z,1013.43
2016-05-16T05:09:15.589Z,1013.43
2016-05-16T05:10:15.592Z,1013.43
2016-05-16T05:11:15.594Z,1013.44
2016-05-16T05:12:15.613Z,1013.42
2016-05-16T05:13:15.616Z,1013.45
2016-05-16T05:14:15.619Z,1013.43
2016-05-16T05:15:15.622Z,1013.43
2016-05-16T05:16:15.624Z,1013.44
2016-05-16T05:17:15.626Z,1013.42
2016-05-16T05:18:15.645Z,1013.41
2016-05-16T05:19:15.648Z,1013.4
2016-05-16T05:20:15.666Z,1013.42
2016-05-16T05:21:15.668Z,1013.43
2016-05-16T05:22:15.671Z,1013.42
2016-05-16T05:23:15.673Z,1013.41
2016-05-16T05:24:15.677Z,1013.41
2016-05-16T05:25:15.679Z,1013.41
2016-05-16T05:26:15.682Z,1013.41
2016-05-16T05:27:15.700Z,1013.43
2016-05-16T05:28:15.703Z,1013.41
2016-05-16T05:29:15.706Z,1013.43
2016-05-16T05:30:15.708Z,1013.42
2016-05-16T05:31:15.711Z,1013.46
2016-05-16T05:33:15.732Z,1013.5
2016-05-16T05:34:15.735Z,1013.44
2016-05-16T05:35:15.737Z,1013.49
2016-05-16T05:36:15.739Z,1013.5
2016-05-16T05:37:15.759Z,1013.52
2016-05-16T05:38:15.761Z,1013.52
2016-05-16T05:39:15.764Z,1013.51
2016-05-16T05:40:15.766Z,1013.51
2016-05-16T05:41:15.769Z,1013.51
2016-05-16T05:42:15.787Z,1013.52
2016-05-16T05:43:15.791Z,1013.51
2016-05-16T05:44:15.793Z,1013.53
2016-05-16T05:45:15.827Z,1013.5
2016-05-16T05:46:15.798Z,1013.53
2016-05-16T05:47:15.817Z,1013.5
2016-05-16T05:48:15.818Z,1013.51
2016-05-16T05:49:15.822Z,1013.51
2016-05-16T05:50:15.840Z,1013.47
2016-05-16T05:51:15.827Z,1013.51
2016-05-16T05:52:15.845Z,1013.5
2016-05-16T05:53:15.849Z,1013.5
2016-05-16T05:54:15.851Z,1013.52
2016-05-16T05:55:15.854Z,1013.48
2016-05-16T05:56:15.857Z,1013.5
2016-05-16T05:57:15.875Z,1013.49
2016-05-16T05:58:15.878Z,1013.51
2016-05-16T05:59:15.880Z,1013.53
2016-05-16T06:00:15.883Z,1013.51
2016-05-16T06:01:15.886Z,1013.53
2016-05-16T06:02:15.904Z,1013.56
2016-05-16T06:03:15.906Z,1013.56
2016-05-16T06:04:15.909Z,1013.58
2016-05-16T06:05:16.272Z,1013.59
2016-05-16T06:06:15.930Z,1013.6
2016-05-16T06:07:15.933Z,1013.56
2016-05-16T06:08:15.936Z,1013.57
2016-05-16T06:09:15.938Z,1013.57
2016-05-16T06:10:15.956Z,1013.55
2016-05-16T06:11:15.943Z,1013.58
2016-05-16T06:12:15.962Z,1013.58
2016-05-16T06:13:15.964Z,1013.6
2016-05-16T06:14:15.967Z,1013.59
2016-05-16T06:15:15.969Z,1013.6
2016-05-16T06:16:15.988Z,1013.61
2016-05-16T06:17:15.990Z,1013.61
2016-05-16T06:18:15.993Z,1013.6
2016-05-16T06:19:15.997Z,1013.61
2016-05-16T06:20:15.999Z,1013.57
2016-05-16T06:21:16.018Z,1013.61
2016-05-16T06:22:16.020Z,1013.62
2016-05-16T06:23:16.023Z,1013.59
2016-05-16T06:24:16.026Z,1013.64
2016-05-16T06:25:16.028Z,1013.58
2016-05-16T06:26:16.046Z,1013.64
2016-05-16T06:27:16.049Z,1013.66
2016-05-16T06:28:16.051Z,1013.69
2016-05-16T06:29:16.054Z,1013.67
2016-05-16T06:30:16.057Z,1013.63
2016-05-16T06:31:16.075Z,1013.64
2016-05-16T06:32:16.079Z,1013.67
2016-05-16T06:33:16.080Z,1013.64
2016-05-16T06:34:16.084Z,1013.66
2016-05-16T06:35:16.087Z,1013.69
2016-05-16T06:36:16.105Z,1013.7
2016-05-16T06:37:16.108Z,1013.68
2016-05-16T06:38:16.110Z,1013.67
2016-05-16T06:39:16.113Z,1013.69
2016-05-16T06:40:16.116Z,1013.7
2016-05-16T06:41:16.134Z,1013.7
2016-05-16T06:42:16.136Z,1013.74
2016-05-16T06:43:16.139Z,1013.76
2016-05-16T06:44:16.141Z,1013.74
2016-05-16T06:45:16.144Z,1013.74
2016-05-16T06:46:16.163Z,1013.74
2016-05-16T06:47:16.166Z,1013.79
2016-05-16T06:48:16.169Z,1013.77
2016-05-16T06:49:16.186Z,1013.84
2016-05-16T06:50:16.174Z,1013.8
2016-05-16T06:51:16.192Z,1013.83
2016-05-16T06:52:16.194Z,1013.83
2016-05-16T06:53:16.197Z,1013.8
2016-05-16T06:54:16.215Z,1013.84
2016-05-16T06:55:16.218Z,1013.84
2016-05-16T06:56:16.221Z,1013.84
2016-05-16T06:57:16.224Z,1013.87
2016-05-16T06:58:16.226Z,1013.9
2016-05-16T06:59:16.635Z,1013.88
2016-05-16T07:00:16.247Z,1013.89
2016-05-16T07:01:16.250Z,1013.9
2016-05-16T07:02:16.643Z,1013.92
2016-05-16T07:03:16.255Z,1013.9
2016-05-16T07:04:16.274Z,1014.04
2016-05-16T07:05:16.276Z,1014.03
2016-05-16T07:06:16.278Z,1013.91
2016-05-16T07:07:16.282Z,1013.96
2016-05-16T07:08:16.300Z,1013.94
2016-05-16T07:09:16.303Z,1013.92
2016-05-16T07:10:16.305Z,1013.91
2016-05-16T07:11:16.308Z,1013.91
2016-05-16T07:12:16.311Z,1013.91
2016-05-16T07:13:16.330Z,1013.92
2016-05-16T07:14:16.332Z,1013.92
2016-05-16T07:15:16.335Z,1013.89
2016-05-16T07:16:16.338Z,1013.9
2016-05-16T07:17:16.355Z,1013.96
2016-05-16T07:18:16.358Z,1013.89
2016-05-16T07:19:16.360Z,1013.95
2016-05-16T07:20:16.379Z,1013.93
2016-05-16T07:21:16.366Z,1014.02
2016-05-16T07:22:16.385Z,1013.98
2016-05-16T07:23:16.388Z,1014.25
2016-05-16T07:24:16.390Z,1014.08
2016-05-16T07:25:16.393Z,1013.96
2016-05-16T07:26:16.395Z,1014.06
2016-05-16T07:27:16.413Z,1014.1
2016-05-16T07:28:16.416Z,1014.7
2016-05-16T07:29:16.418Z,1014.58
2016-05-16T07:30:16.422Z,1014.39
2016-05-16T07:31:16.440Z,1014.1
2016-05-16T07:32:16.442Z,1013.95
2016-05-16T07:33:16.445Z,1013.94
2016-05-16T07:34:16.464Z,1013.92
2016-05-16T07:35:16.467Z,1013.93
2016-05-16T07:36:16.469Z,1013.91
2016-05-16T07:37:16.472Z,1013.88
2016-05-16T07:38:16.490Z,1013.91
2016-05-16T07:39:16.493Z,1013.88
2016-05-16T07:40:16.496Z,1013.84
2016-05-16T07:41:16.513Z,1013.86
2016-05-16T07:42:16.517Z,1013.82
2016-05-16T07:43:16.519Z,1013.81
2016-05-16T07:44:16.538Z,1013.78
2016-05-16T07:45:16.540Z,1013.84
2016-05-16T07:46:16.543Z,1013.84
2016-05-16T07:47:16.545Z,1013.88
2016-05-16T07:48:16.548Z,1013.83
2016-05-16T07:49:16.567Z,1013.78
2016-05-16T07:50:16.569Z,1013.83
2016-05-16T07:51:16.572Z,1013.83
2016-05-16T07:52:16.574Z,1013.84
2016-05-16T07:53:16.593Z,1013.87
2016-05-16T07:54:16.611Z,1013.89
2016-05-16T07:55:16.598Z,1013.91
2016-05-16T07:56:16.601Z,1013.92
2016-05-16T07:57:16.618Z,1013.92
2016-05-16T07:58:16.622Z,1013.93
2016-05-16T07:59:16.625Z,1013.92
2016-05-16T08:00:16.643Z,1013.94
2016-05-16T08:01:16.646Z,1013.94
2016-05-16T08:02:16.648Z,1013.97
2016-05-16T08:03:16.651Z,1013.99
2016-05-16T08:04:16.669Z,1013.97
2016-05-16T08:05:16.687Z,1013.94
2016-05-16T08:06:16.675Z,1013.98
2016-05-16T08:07:16.678Z,1013.97
2016-05-16T08:08:16.695Z,1014.01
2016-05-16T08:09:16.698Z,1013.95
2016-05-16T08:10:16.701Z,1013.94
2016-05-16T08:11:16.703Z,1013.95
2016-05-16T08:12:16.722Z,1013.93
2016-05-16T08:13:16.724Z,1013.89
2016-05-16T08:14:16.728Z,1013.94
2016-05-16T08:15:16.731Z,1013.95
2016-05-16T08:16:16.749Z,1013.93
2016-05-16T08:17:16.752Z,1013.92
2016-05-16T08:18:16.754Z,1013.91
2016-05-16T08:19:16.757Z,1013.89
2016-05-16T08:20:16.775Z,1013.87
2016-05-16T08:21:16.777Z,1013.86
2016-05-16T08:22:16.796Z,1013.87
2016-05-16T08:23:16.783Z,1013.85
2016-05-16T08:24:16.802Z,1013.84
2016-05-16T08:25:16.804Z,1013.87
2016-05-16T08:26:16.807Z,1013.85
2016-05-16T08:27:16.824Z,1013.9
2016-05-16T08:28:16.827Z,1013.93
2016-05-16T08:29:16.829Z,1013.87
2016-05-16T08:30:16.832Z,1013.88
2016-05-16T08:31:16.852Z,1013.91
2016-05-16T08:32:16.854Z,1013.93
2016-05-16T08:33:16.857Z,1013.95
2016-05-16T08:34:16.875Z,1013.99
2016-05-16T08:35:16.878Z,1013.98
2016-05-16T08:36:16.881Z,1013.93
2016-05-16T08:37:16.883Z,1013.91
2016-05-16T08:38:16.886Z,1013.88
2016-05-16T08:39:16.904Z,1013.87
2016-05-16T08:40:16.904Z,1013.85
2016-05-16T08:41:16.906Z,1013.83
2016-05-16T08:42:16.925Z,1013.83
2016-05-16T08:43:16.928Z,1013.87
2016-05-16T08:44:16.930Z,1013.82
2016-05-16T08:45:16.934Z,1013.82
2016-05-16T08:46:16.951Z,1013.89
2016-05-16T08:47:16.954Z,1013.94
2016-05-16T08:48:16.958Z,1013.87
2016-05-16T08:49:16.960Z,1013.85
2016-05-16T08:50:16.978Z,1013.86
2016-05-16T08:51:17.296Z,1013.9
2016-05-16T08:52:16.983Z,1013.88
2016-05-16T08:53:16.986Z,1013.84
2016-05-16T08:54:17.004Z,1013.88
2016-05-16T08:55:17.007Z,1013.86
2016-05-16T08:56:17.010Z,1013.83
2016-05-16T08:57:17.028Z,1013.9
2016-05-16T08:58:17.015Z,1013.88
2016-05-16T08:59:17.033Z,1013.9
2016-05-16T09:00:17.035Z,1013.88
2016-05-16T09:01:17.038Z,1013.88
2016-05-16T09:02:17.056Z,1013.86
2016-05-16T09:03:17.059Z,1013.85
2016-05-16T09:04:17.063Z,1013.83
2016-05-16T09:05:17.331Z,1013.85
2016-05-16T09:06:17.084Z,1013.84
2016-05-16T09:07:17.086Z,1013.86
2016-05-16T09:08:17.089Z,1013.86
2016-05-16T09:09:17.092Z,1013.88
2016-05-16T09:10:17.109Z,1013.91
2016-05-16T09:11:17.112Z,1013.85
2016-05-16T09:12:17.131Z,1013.87
2016-05-16T09:13:17.118Z,1013.85
2016-05-16T09:14:17.136Z,1013.83
2016-05-16T09:15:17.139Z,1013.86
2016-05-16T09:16:17.141Z,1013.82
2016-05-16T09:17:17.160Z,1013.81
2016-05-16T09:18:17.162Z,1013.83
2016-05-16T09:19:17.165Z,1013.86
2016-05-16T09:20:17.169Z,1013.84
2016-05-16T09:21:17.514Z,1013.83
2016-05-16T09:22:17.189Z,1013.82
2016-05-16T09:23:17.191Z,1013.81
2016-05-16T09:24:17.194Z,1013.78
2016-05-16T09:25:17.213Z,1013.85
2016-05-16T09:26:17.216Z,1013.84
2016-05-16T09:27:17.218Z,1013.77
2016-05-16T09:28:17.221Z,1013.78
2016-05-16T09:29:17.239Z,1013.82
2016-05-16T09:30:17.241Z,1013.81
2016-05-16T09:31:17.244Z,1013.79
2016-05-16T09:32:17.262Z,1013.79
2016-05-16T09:33:17.265Z,1013.82
2016-05-16T09:34:17.268Z,1013.72
2016-05-16T09:35:17.271Z,1013.79
2016-05-16T09:36:17.290Z,1013.74
2016-05-16T09:37:17.292Z,1013.75
2016-05-16T09:38:17.295Z,1013.75
2016-05-16T09:39:17.312Z,1013.77
2016-05-16T09:40:17.331Z,1013.76
2016-05-16T09:41:17.334Z,1013.74
2016-05-16T09:42:17.320Z,1013.73
2016-05-16T09:43:17.323Z,1013.71
2016-05-16T09:44:17.342Z,1013.72
2016-05-16T09:45:17.345Z,1013.77
2016-05-16T09:46:17.347Z,1013.74
2016-05-16T09:47:17.366Z,1013.68
2016-05-16T09:48:17.368Z,1013.69
2016-05-16T09:49:17.386Z,1013.68
2016-05-16T09:50:17.389Z,1013.68
2016-05-16T09:51:17.391Z,1013.7
2016-05-16T09:52:17.395Z,1013.65
2016-05-16T09:53:17.397Z,1013.68
2016-05-16T09:54:17.400Z,1013.69
2016-05-16T09:55:17.418Z,1013.68
2016-05-16T09:56:17.421Z,1013.67
2016-05-16T09:57:17.424Z,1013.7
2016-05-16T09:58:17.442Z,1013.77
2016-05-16T09:59:17.445Z,1013.69
2016-05-16T10:00:17.447Z,1013.75
2016-05-16T10:01:17.466Z,1013.73
2016-05-16T10:02:17.468Z,1013.65
2016-05-16T10:03:17.471Z,1013.7
2016-05-16T10:04:17.473Z,1013.65
2016-05-16T10:05:17.492Z,1013.6
2016-05-16T10:06:17.604Z,1013.62
2016-05-16T10:07:17.498Z,1013.72
2016-05-16T10:08:17.501Z,1013.73
2016-05-16T10:09:17.518Z,1013.72
2016-05-16T10:10:17.521Z,1013.67
2016-05-16T10:11:17.523Z,1013.7
2016-05-16T10:12:17.526Z,1013.7
2016-05-16T10:13:17.545Z,1013.71
2016-05-16T10:14:17.548Z,1013.73
2016-05-16T10:15:17.551Z,1013.63
2016-05-16T10:16:17.569Z,1013.64
2016-05-16T10:17:17.572Z,1013.61
2016-05-16T10:18:17.574Z,1013.59
2016-05-16T10:19:17.577Z,1013.59
2016-05-16T10:20:17.594Z,1013.64
2016-05-16T10:21:17.598Z,1013.57
2016-05-16T10:22:17.600Z,1013.59
2016-05-16T10:23:17.619Z,1013.56
2016-05-16T10:24:17.622Z,1013.56
2016-05-16T10:25:17.624Z,1013.64
2016-05-16T10:26:17.627Z,1013.64
2016-05-16T10:27:17.644Z,1013.65
2016-05-16T10:28:17.694Z,1013.6
2016-05-16T10:29:17.650Z,1013.57
2016-05-16T10:30:17.669Z,1013.64
2016-05-16T10:31:17.688Z,1013.65
2016-05-16T10:32:17.674Z,1013.64
2016-05-16T10:33:17.693Z,1013.6
2016-05-16T10:34:17.695Z,1013.64
2016-05-16T10:35:17.698Z,1013.6
2016-05-16T10:36:17.715Z,1013.64
2016-05-16T10:37:17.719Z,1013.55
2016-05-16T10:38:17.721Z,1013.53
2016-05-16T10:39:17.723Z,1013.63
2016-05-16T10:40:17.743Z,1013.57
2016-05-16T10:41:17.746Z,1013.57
2016-05-16T10:42:17.764Z,1013.59
2016-05-16T10:44:17.769Z,1013.63
2016-05-16T10:45:17.772Z,1013.61
2016-05-16T10:46:17.774Z,1013.59
2016-05-16T10:47:17.792Z,1013.58
2016-05-16T10:48:17.795Z,1013.61
2016-05-16T10:49:17.798Z,1013.62
2016-05-16T10:50:17.800Z,1013.56
2016-05-16T10:51:17.819Z,1013.56
2016-05-16T10:52:17.821Z,1013.6
2016-05-16T10:53:17.825Z,1013.56
2016-05-16T10:54:17.842Z,1013.64
2016-05-16T10:55:17.845Z,1013.58
2016-05-16T10:56:17.848Z,1013.56
2016-05-16T10:57:17.850Z,1013.54
2016-05-16T10:58:17.909Z,1013.54
2016-05-16T10:59:17.959Z,1013.56
2016-05-16T11:00:18.008Z,1013.54
2016-05-16T11:01:18.058Z,1013.54
2016-05-16T11:02:18.123Z,1013.53
2016-05-16T11:03:18.147Z,1013.51
2016-05-16T11:04:18.167Z,1013.54
2016-05-16T11:05:18.201Z,1013.55
2016-05-16T11:06:18.221Z,1013.56
2016-05-16T11:07:18.241Z,1013.52
2016-05-16T11:08:18.266Z,1013.57
2016-05-16T11:09:18.275Z,1013.57
2016-05-16T11:10:18.283Z,1013.55
2016-05-16T11:11:18.292Z,1013.53
2016-05-16T11:12:18.301Z,1013.57
2016-05-16T11:13:18.322Z,1013.52
2016-05-16T11:14:18.326Z,1013.56
2016-05-16T11:15:18.332Z,1013.52
2016-05-16T11:16:18.351Z,1013.55
2016-05-16T11:17:18.357Z,1013.51
2016-05-16T11:18:18.360Z,1013.53
2016-05-16T11:19:18.379Z,1013.59
2016-05-16T11:20:18.384Z,1013.58
2016-05-16T11:21:18.386Z,1013.58
2016-05-16T11:22:18.390Z,1013.53
2016-05-16T11:23:18.394Z,1013.58
2016-05-16T11:24:18.411Z,1013.52
2016-05-16T11:25:18.415Z,1013.57
2016-05-16T11:26:18.417Z,1013.54
2016-05-16T11:27:18.436Z,1013.55
2016-05-16T11:28:18.439Z,1013.52
2016-05-16T11:29:18.442Z,1013.52
2016-05-16T11:30:18.444Z,1013.5
2016-05-16T11:31:18.464Z,1013.41
2016-05-16T11:32:18.466Z,1013.49
2016-05-16T11:33:18.469Z,1013.47
2016-05-16T11:34:18.487Z,1013.5
2016-05-16T11:35:18.489Z,1013.5
2016-05-16T11:36:18.492Z,1013.5
2016-05-16T11:37:18.494Z,1013.49
2016-05-16T11:38:18.513Z,1013.51
2016-05-16T11:39:18.516Z,1013.52
2016-05-16T11:40:18.519Z,1013.54
2016-05-16T11:41:18.537Z,1013.55
2016-05-16T11:42:18.540Z,1013.49
2016-05-16T11:43:18.542Z,1013.52
2016-05-16T11:44:18.545Z,1013.46
2016-05-16T11:45:18.548Z,1013.49
2016-05-16T11:46:18.565Z,1013.48
2016-05-16T11:47:18.585Z,1013.48
2016-05-16T11:48:18.571Z,1013.48
2016-05-16T11:49:18.590Z,1013.49
2016-05-16T11:50:18.593Z,1013.5
2016-05-16T11:51:18.595Z,1013.5
2016-05-16T11:52:18.613Z,1013.51
2016-05-16T11:53:18.615Z,1013.48
2016-05-16T11:54:18.618Z,1013.44
2016-05-16T11:55:18.621Z,1013.44
2016-05-16T11:56:18.640Z,1013.44
2016-05-16T11:57:18.642Z,1013.43
2016-05-16T11:58:18.645Z,1013.43
2016-05-16T11:59:18.647Z,1013.38
2016-05-16T12:00:18.667Z,1013.44
2016-05-16T12:01:18.669Z,1013.43
2016-05-16T12:02:18.672Z,1013.42
2016-05-16T12:03:18.690Z,1013.43
2016-05-16T12:04:18.692Z,1013.42
2016-05-16T12:05:18.695Z,1013.4
2016-05-16T12:06:18.713Z,1013.38
2016-05-16T12:07:18.716Z,1013.43
2016-05-16T12:08:18.719Z,1013.36
2016-05-16T12:09:18.722Z,1013.38
2016-05-16T12:10:18.724Z,1013.39